CheckWX is a tool to help pilots better visualize weather data.  It is not intended as a substitute for an official pre-flight weather briefing.

09:16:16 UTC

KMDW METAR
Chicago Midway International Airport
Chicago, Illinois, USA
Current

23 mins ago

KMDW 250853Z 13005KT 10SM FEW050 BKN250 17/10 A3016 RMK SLPNO
Observed
Aug-25 @ 08:53 UTC
Wind
  • 130° at 5 KTS
Visibility
10 SM
Flight Rules
VFR
Cloud Levels
  • Few at 5,000' AGL
  • Broken at 25,000' AGL
Temperature
17°C / 63°F
Dewpoint
10°C / 50°F
Humidity
64%
Altimeter
30.16" Hg
Pressure
1021.32 hPa
Previous

1 hour ago

KMDW 250753Z 13005KT 10SM OVC250 18/09 A3016 RMK SLPNO
Observed
Aug-25 @ 07:53 UTC
Wind
  • 130° at 5 KTS
Visibility
10 SM
Flight Rules
VFR
Cloud Levels
  • Overcast at 25,000' AGL
Temperature
18°C / 64°F
Dewpoint
C / 48°F
Humidity
56%
Altimeter
30.16" Hg
Pressure
1021.32 hPa
Previous

2 hours ago

KMDW 250653Z 12005KT 10SM BKN250 19/10 A3017 RMK SLPNO
Observed
Aug-25 @ 06:53 UTC
Wind
  • 120° at 5 KTS
Visibility
10 SM
Flight Rules
VFR
Cloud Levels
  • Broken at 25,000' AGL
Temperature
19°C / 66°F
Dewpoint
10°C / 50°F
Humidity
56%
Altimeter
30.17" Hg
Pressure
1021.72 hPa